Time;durP1;ratioP1;P1;durP2;ratioP2;P2;SDS_P1;SDS_P2;PMS_P1;PMS_P2;Temp;Humidity;BMP_temperature;BMP_pressure;BME280_temperature;BME280_humidity;BME280_pressure;Samples;Min_cycle;Max_cycle;Signal;HPM_P1;HPM_P2
2021/03/03 00:01:59;;;;;;;48.20;21.75;;;5.60;99.90;;;5.18;100.00;102853.19;4999569;28;20038;-65
2021/03/03 00:04:28;;;;;;;39.45;19.63;;;5.60;99.90;;;5.19;100.00;102857.63;4989514;28;20085;-64
2021/03/03 00:06:54;;;;;;;39.13;20.67;;;5.60;99.90;;;5.19;100.00;102860.31;5001046;28;20120;-65
2021/03/03 00:09:20;;;;;;;41.00;20.27;;;5.60;99.90;;;5.20;100.00;102864.72;5000896;28;20034;-64
2021/03/03 00:11:46;;;;;;;47.13;20.30;;;5.50;99.90;;;5.19;100.00;102865.72;5022192;28;20408;-65
2021/03/03 00:14:12;;;;;;;42.53;19.92;;;5.50;99.90;;;5.16;100.00;102868.63;5016518;28;20692;-64
2021/03/03 00:16:38;;;;;;;38.53;20.40;;;5.60;99.90;;;5.19;100.00;102871.13;5001755;28;20037;-64
2021/03/03 00:19:04;;;;;;;46.65;21.75;;;5.50;99.90;;;5.15;100.00;102868.75;5006129;28;20160;-64
2021/03/03 00:21:30;;;;;;;40.42;21.33;;;5.50;99.90;;;5.17;100.00;102873.06;4993808;28;20133;-65
2021/03/03 00:23:56;;;;;;;45.22;21.75;;;5.50;99.90;;;5.15;100.00;102869.63;4972502;28;20130;-64
2021/03/03 00:26:22;;;;;;;42.35;22.05;;;5.50;99.90;;;5.17;100.00;102875.75;5006664;28;20052;-64
2021/03/03 00:28:48;;;;;;;42.05;20.65;;;5.50;99.90;;;5.15;100.00;102882.25;5000681;28;20061;-65
2021/03/03 00:31:14;;;;;;;45.35;21.52;;;5.50;99.90;;;5.05;100.00;102871.28;5022799;28;20030;-64
2021/03/03 00:33:40;;;;;;;42.20;20.13;;;5.40;99.90;;;5.00;100.00;102870.75;4999796;28;20065;-66
2021/03/03 00:36:06;;;;;;;34.97;18.48;;;5.40;99.90;;;4.97;100.00;102876.38;4985406;28;20495;-65
2021/03/03 00:38:32;;;;;;;39.17;19.27;;;5.40;99.90;;;4.91;100.00;102882.22;4997482;28;20068;-65
2021/03/03 00:40:58;;;;;;;42.97;21.70;;;5.40;99.90;;;4.82;100.00;102883.78;5001364;28;20034;-65
2021/03/03 00:43:24;;;;;;;37.92;19.42;;;5.30;99.90;;;4.79;100.00;102877.75;5000932;28;20045;-65
2021/03/03 00:45:50;;;;;;;35.88;19.00;;;5.30;99.90;;;4.76;100.00;102884.22;5002390;28;20140;-66
2021/03/03 00:48:16;;;;;;;45.65;19.98;;;5.30;99.90;;;4.74;100.00;102881.63;5016059;28;20069;-65
2021/03/03 00:50:41;;;;;;;45.45;19.90;;;5.30;99.90;;;4.73;100.00;102887.16;5020095;28;20090;-65
2021/03/03 00:53:12;;;;;;;38.25;18.98;;;5.20;99.90;;;4.72;100.00;102888.13;4980514;28;20026;-63
2021/03/03 00:55:38;;;;;;;41.58;18.85;;;5.20;99.90;;;4.71;100.00;102887.25;5001244;28;20507;-63
2021/03/03 00:58:04;;;;;;;41.58;20.85;;;5.10;99.90;;;4.71;100.00;102881.88;4989752;28;20046;-61
2021/03/03 01:00:30;;;;;;;48.25;19.88;;;5.10;99.90;;;4.72;100.00;102880.03;5005199;28;20081;-63
2021/03/03 01:02:56;;;;;;;38.35;18.83;;;5.10;99.90;;;4.72;100.00;102878.19;5021384;28;20041;-64
2021/03/03 01:05:22;;;;;;;35.03;18.92;;;5.10;99.90;;;4.73;100.00;102871.84;5002901;28;20029;-63
2021/03/03 01:07:48;;;;;;;42.45;19.30;;;5.10;99.90;;;4.72;100.00;102877.34;5004329;28;20512;-63
2021/03/03 01:10:14;;;;;;;42.33;18.60;;;5.10;99.90;;;4.72;100.00;102872.81;4982829;28;20070;-62
2021/03/03 01:12:40;;;;;;;36.95;18.60;;;5.20;99.90;;;4.76;100.00;102878.81;4996994;28;20053;-62
2021/03/03 01:15:07;;;;;;;39.90;19.45;;;5.10;99.90;;;4.79;100.00;102872.34;5000526;28;20407;-63
2021/03/03 01:17:34;;;;;;;43.08;20.48;;;5.10;99.90;;;4.89;100.00;102870.69;5002862;28;20038;-64
2021/03/03 01:20:00;;;;;;;36.97;19.10;;;5.10;99.90;;;4.82;100.00;102873.00;5020407;28;21255;-65
2021/03/03 01:22:26;;;;;;;45.22;18.25;;;5.10;99.90;;;4.83;100.00;102863.06;5000604;28;20030;-63
2021/03/03 01:24:52;;;;;;;36.10;19.65;;;5.10;99.90;;;4.80;100.00;102852.47;5002893;28;20087;-64
2021/03/03 01:27:19;;;;;;;36.85;18.17;;;5.20;99.90;;;4.84;100.00;102851.28;5001791;28;20570;-64
2021/03/03 01:29:45;;;;;;;41.80;18.65;;;5.20;99.90;;;4.86;100.00;102854.72;5002086;28;20064;-64
2021/03/03 01:32:11;;;;;;;41.65;18.98;;;5.20;99.90;;;4.87;100.00;102859.13;5001216;28;20033;-65
2021/03/03 01:34:37;;;;;;;36.63;17.88;;;5.20;99.90;;;4.83;100.00;102846.88;5000828;28;20056;-65
2021/03/03 01:37:03;;;;;;;33.80;17.30;;;5.20;99.90;;;4.85;100.00;102842.22;5004622;28;20034;-65
2021/03/03 01:39:29;;;;;;;41.47;18.77;;;5.20;99.90;;;4.84;100.00;102845.91;5016006;28;20496;-65
2021/03/03 01:41:54;;;;;;;34.55;16.67;;;5.20;99.90;;;4.88;100.00;102847.38;5006597;28;20048;-65
2021/03/03 01:44:21;;;;;;;36.28;17.63;;;5.20;99.90;;;4.86;100.00;102841.22;5000696;28;20042;-63
2021/03/03 01:46:47;;;;;;;41.05;18.90;;;5.10;99.90;;;4.96;100.00;102847.69;4972904;28;20045;-62
2021/03/03 01:49:13;;;;;;;41.20;20.38;;;5.10;99.90;;;5.03;100.00;102848.94;5000572;28;20784;-63
2021/03/03 01:51:39;;;;;;;40.35;18.75;;;5.10;99.90;;;4.99;100.00;102842.03;5006314;28;20496;-63
2021/03/03 01:54:06;;;;;;;40.72;20.88;;;5.10;99.90;;;4.94;100.00;102838.84;4984329;28;20045;-62
2021/03/03 01:56:32;;;;;;;42.35;18.38;;;5.10;99.90;;;4.84;100.00;102837.81;5004658;28;20042;-63
2021/03/03 01:58:58;;;;;;;34.60;17.63;;;5.10;99.90;;;4.80;100.00;102833.59;5007186;28;20344;-63
2021/03/03 02:01:23;;;;;;;41.05;19.67;;;5.10;99.90;;;4.83;100.00;102827.97;5004037;28;20053;-63
2021/03/03 02:03:49;;;;;;;42.70;18.08;;;5.10;99.90;;;4.85;100.00;102828.75;5002741;28;20046;-63
2021/03/03 02:06:33;;;;;;;38.08;19.35;;;5.20;99.90;;;4.87;100.00;102832.16;5006444;28;20042;-64
2021/03/03 02:09:09;;;;;;;37.83;19.95;;;5.20;99.90;;;4.85;100.00;102828.75;5011153;28;20029;-65
2021/03/03 02:11:58;;;;;;;42.03;18.77;;;5.10;99.90;;;4.83;100.00;102826.16;5008222;28;20435;-64
2021/03/03 02:14:27;;;;;;;35.47;17.13;;;5.10;99.90;;;4.80;100.00;102820.97;5015888;28;20507;-66
2021/03/03 02:16:55;;;;;;;38.47;18.55;;;5.10;99.90;;;4.77;100.00;102820.31;5010734;28;20037;-65
2021/03/03 02:19:29;;;;;;;38.00;19.20;;;5.10;99.90;;;4.67;100.00;102815.63;5010759;28;20038;-66
2021/03/03 02:22:17;;;;;;;32.00;18.23;;;5.10;99.90;;;4.56;100.00;102802.06;5010943;28;20496;-66
2021/03/03 02:24:56;;;;;;;29.80;16.42;;;5.00;99.90;;;4.49;100.00;102806.22;5024902;28;20046;-65
2021/03/03 02:27:23;;;;;;;34.65;17.92;;;5.00;99.90;;;4.44;100.00;102807.50;5021752;28;20029;-65
2021/03/03 02:29:51;;;;;;;32.65;16.05;;;5.00;99.90;;;4.36;100.00;102810.75;5013958;28;20030;-65
2021/03/03 02:32:19;;;;;;;33.72;16.60;;;4.90;99.90;;;4.28;100.00;102813.16;5009370;28;20042;-65
2021/03/03 02:34:46;;;;;;;34.47;17.98;;;4.90;99.90;;;4.24;100.00;102807.13;5010344;28;20070;-65
2021/03/03 02:37:14;;;;;;;34.47;17.58;;;4.80;99.90;;;4.21;100.00;102806.47;4993569;28;20030;-66
2021/03/03 02:39:40;;;;;;;33.58;18.25;;;4.70;99.90;;;4.22;100.00;102803.69;5013006;28;20066;-65
2021/03/03 02:42:08;;;;;;;36.88;17.30;;;4.70;99.90;;;4.29;100.00;102809.47;5010957;28;20033;-64
2021/03/03 02:44:36;;;;;;;39.92;16.80;;;4.70;99.90;;;4.31;100.00;102803.00;5020898;28;20990;-65
2021/03/03 02:47:02;;;;;;;31.10;17.08;;;4.70;99.90;;;4.35;100.00;102798.25;5007945;28;20046;-65
2021/03/03 02:49:29;;;;;;;37.35;17.15;;;4.70;99.90;;;4.29;100.00;102799.56;5021274;28;20056;-64
2021/03/03 02:51:55;;;;;;;36.88;17.75;;;4.70;99.90;;;4.32;100.00;102790.38;5010245;28;20065;-65
2021/03/03 02:54:20;;;;;;;29.55;16.27;;;4.70;99.90;;;4.29;100.00;102785.22;5013808;28;20042;-65
2021/03/03 02:56:47;;;;;;;29.77;16.80;;;4.70;99.90;;;4.28;100.00;102794.28;5008743;28;20065;-65
2021/03/03 02:59:37;;;;;;;34.00;16.75;;;4.70;99.90;;;4.29;100.00;102799.56;4989160;28;20030;-65
2021/03/03 03:02:06;;;;;;;32.83;15.73;;;4.70;99.90;;;4.30;100.00;102795.03;5023696;28;20061;-64
2021/03/03 03:04:37;;;;;;;40.83;18.30;;;4.60;99.90;;;4.23;100.00;102797.31;4987169;28;20029;-64
2021/03/03 03:07:12;;;;;;;32.22;17.27;;;4.60;99.90;;;4.15;100.00;102796.16;5007848;28;20025;-64
2021/03/03 03:09:39;;;;;;;33.67;16.70;;;4.60;99.90;;;4.10;100.00;102787.53;5023224;28;20034;-64
2021/03/03 03:12:08;;;;;;;33.65;16.00;;;4.50;99.90;;;4.07;100.00;102783.22;5007651;28;20041;-64
2021/03/03 03:14:34;;;;;;;34.08;15.80;;;4.50;99.90;;;4.06;100.00;102786.91;4995766;28;20471;-65
2021/03/03 03:17:01;;;;;;;29.23;16.60;;;4.50;99.90;;;4.04;100.00;102782.59;5011568;28;20045;-64
2021/03/03 03:19:38;;;;;;;32.30;16.70;;;4.50;99.90;;;3.96;100.00;102786.69;5029768;28;20038;-65
2021/03/03 03:22:08;;;;;;;35.83;15.82;;;4.40;99.90;;;3.90;100.00;102789.81;4987860;28;20029;-62
2021/03/03 03:24:37;;;;;;;34.42;18.10;;;4.40;99.90;;;3.93;100.00;102796.84;5016108;28;20056;-61
2021/03/03 03:27:05;;;;;;;33.95;16.50;;;4.40;99.90;;;3.91;100.00;102802.31;5022479;28;20159;-61
2021/03/03 03:29:33;;;;;;;43.63;17.92;;;4.40;99.90;;;3.89;100.00;102798.88;5005862;28;20938;-61
2021/03/03 03:31:59;;;;;;;31.15;16.27;;;4.40;99.90;;;3.88;100.00;102804.38;5020851;28;20575;-62
2021/03/03 03:34:25;;;;;;;32.00;16.08;;;4.40;99.90;;;3.95;100.00;102801.13;4975641;28;20176;-61
2021/03/03 03:36:52;;;;;;;35.70;16.50;;;4.30;99.90;;;3.96;100.00;102797.44;4993609;28;20117;-61
2021/03/03 03:39:18;;;;;;;35.28;17.10;;;4.30;99.90;;;3.95;100.00;102798.41;5012739;28;20041;-61
2021/03/03 03:41:47;;;;;;;33.78;16.33;;;4.40;99.90;;;3.96;100.00;102797.44;5008686;28;20030;-62
2021/03/03 03:44:15;;;;;;;32.72;15.70;;;4.40;99.90;;;4.03;100.00;102797.03;4983622;28;20038;-62
2021/03/03 03:46:42;;;;;;;37.75;17.92;;;4.30;99.90;;;4.17;100.00;102808.56;5027284;28;20054;-62
2021/03/03 03:49:09;;;;;;;31.52;16.38;;;4.40;99.90;;;4.11;100.00;102805.41;5020451;28;20577;-63
2021/03/03 03:51:38;;;;;;;41.30;19.38;;;4.40;99.90;;;4.16;100.00;102809.53;5015033;28;20037;-62
2021/03/03 03:54:07;;;;;;;39.22;17.88;;;4.40;99.90;;;4.15;100.00;102812.31;5007156;28;20046;-62
2021/03/03 03:56:34;;;;;;;37.22;17.20;;;4.50;99.90;;;4.10;100.00;102809.09;5013177;28;20631;-62
2021/03/03 03:59:00;;;;;;;43.97;19.77;;;4.40;99.90;;;4.13;100.00;102811.56;5005200;28;20084;-63
2021/03/03 04:01:26;;;;;;;39.42;17.63;;;4.40;99.90;;;4.09;100.00;102791.19;5000534;28;20030;-65
2021/03/03 04:03:51;;;;;;;39.17;17.17;;;4.50;99.90;;;4.12;100.00;102802.63;5020669;28;20046;-65
2021/03/03 04:06:17;;;;;;;40.05;18.80;;;4.40;99.90;;;4.15;100.00;102802.41;4997374;28;20396;-65
2021/03/03 04:08:43;;;;;;;38.90;19.13;;;4.50;99.90;;;4.29;100.00;102807.63;4995717;28;20102;-65
2021/03/03 04:11:09;;;;;;;38.88;18.40;;;4.50;99.90;;;4.27;100.00;102811.44;5010300;28;20042;-64
2021/03/03 04:13:35;;;;;;;40.38;19.13;;;4.50;99.90;;;4.28;100.00;102808.63;5006470;28;20484;-65
2021/03/03 04:16:00;;;;;;;37.92;19.27;;;4.50;99.90;;;4.36;100.00;102817.03;5025457;28;20132;-66
2021/03/03 04:18:26;;;;;;;34.25;17.77;;;4.60;99.90;;;4.36;100.00;102816.16;5026491;28;20064;-64
2021/03/03 04:20:52;;;;;;;42.53;19.20;;;4.60;99.90;;;4.34;100.00;102813.56;5026855;28;20503;-64
2021/03/03 04:23:18;;;;;;;40.92;19.83;;;4.50;99.90;;;4.32;100.00;102814.66;5022607;28;20446;-64
2021/03/03 04:25:45;;;;;;;43.65;19.92;;;4.50;99.90;;;4.24;100.00;102811.66;5011322;28;20085;-65
2021/03/03 04:28:10;;;;;;;63.92;19.27;;;4.50;99.90;;;4.33;100.00;102819.06;5003566;28;20045;-65
2021/03/03 04:30:36;;;;;;;76.55;19.35;;;4.50;99.90;;;4.41;100.00;102823.91;4980554;28;20058;-64
2021/03/03 04:33:02;;;;;;;61.70;15.82;;;4.50;99.90;;;4.33;100.00;102822.63;4989408;28;20038;-64
2021/03/03 04:35:28;;;;;;;90.07;15.18;;;4.60;99.90;;;4.37;100.00;102817.88;4994307;28;20041;-66
2021/03/03 04:37:54;;;;;;;53.38;12.63;;;4.60;99.90;;;4.14;100.00;102822.25;5001189;28;20038;-65
2021/03/03 04:40:20;;;;;;;102.05;13.38;;;4.60;99.90;;;4.30;100.00;102827.38;4960570;28;20496;-65
2021/03/03 04:42:46;;;;;;;55.13;10.13;;;4.60;99.90;;;4.33;100.00;102833.41;4974116;28;20053;-66
2021/03/03 04:45:13;;;;;;;66.85;9.45;;;4.60;99.90;;;4.13;100.00;102825.03;5004708;28;20042;-67
2021/03/03 04:47:40;;;;;;;91.07;9.85;;;4.50;99.90;;;4.10;100.00;102825.25;5008171;28;20034;-65
2021/03/03 04:50:08;;;;;;;76.45;9.75;;;4.50;99.90;;;4.33;100.00;102824.47;5011189;28;20527;-65
2021/03/03 04:52:35;;;;;;;43.33;8.43;;;4.60;99.90;;;4.45;100.00;102826.28;4979067;28;20137;-64
2021/03/03 04:55:02;;;;;;;38.55;7.20;;;4.60;99.90;;;4.47;100.00;102835.13;5007327;28;20042;-62
2021/03/03 04:57:28;;;;;;;80.45;8.60;;;4.60;99.90;;;4.46;100.00;102827.13;5004997;28;20145;-62
2021/03/03 04:59:53;;;;;;;24.63;6.53;;;4.50;99.90;;;4.45;100.00;102837.06;5007399;28;20764;-63
2021/03/03 05:02:19;;;;;;;66.20;8.80;;;4.50;99.90;;;4.41;100.00;102840.94;5026793;28;20322;-63
2021/03/03 05:04:45;;;;;;;72.13;9.25;;;4.50;99.90;;;4.40;100.00;102844.63;5011243;28;20040;-64
2021/03/03 05:07:12;;;;;;;26.15;7.38;;;4.60;99.90;;;4.42;100.00;102841.78;5009895;28;20047;-63
2021/03/03 05:09:38;;;;;;;52.85;8.25;;;4.60;99.90;;;4.50;100.00;102845.69;5000707;28;20025;-64
2021/03/03 05:12:05;;;;;;;43.03;8.13;;;4.60;99.90;;;4.31;100.00;102845.28;5006015;28;20091;-64
2021/03/03 05:14:31;;;;;;;62.40;8.60;;;4.60;99.90;;;4.35;100.00;102846.78;5022114;28;20395;-63
2021/03/03 05:16:56;;;;;;;53.45;8.05;;;4.60;99.90;;;4.36;100.00;102843.13;4991998;28;20049;-63
2021/03/03 05:19:22;;;;;;;78.22;9.25;;;4.60;99.90;;;4.39;100.00;102842.91;5005498;28;20030;-64
2021/03/03 05:21:48;;;;;;;40.20;8.13;;;4.60;99.90;;;4.35;100.00;102833.31;5006152;28;20064;-65
2021/03/03 05:24:14;;;;;;;60.60;9.60;;;4.60;99.90;;;4.21;100.00;102839.69;4989668;28;20139;-65
2021/03/03 05:26:39;;;;;;;33.42;7.65;;;4.50;99.90;;;4.15;100.00;102834.75;5006060;28;20399;-64
2021/03/03 05:29:05;;;;;;;28.77;7.25;;;4.50;99.90;;;4.13;100.00;102825.91;5007149;28;20107;-65
2021/03/03 05:31:31;;;;;;;34.47;7.53;;;4.40;99.90;;;4.28;100.00;102823.94;5021699;28;20046;-64
2021/03/03 05:33:57;;;;;;;54.10;8.52;;;4.40;99.90;;;4.34;100.00;102820.78;4991729;28;20088;-65
2021/03/03 05:36:23;;;;;;;38.28;7.97;;;4.50;99.90;;;4.26;100.00;102815.09;5021909;28;20026;-65
2021/03/03 05:38:49;;;;;;;44.55;9.02;;;4.50;99.90;;;4.29;100.00;102809.47;5006312;28;20045;-66
2021/03/03 05:41:14;;;;;;;34.38;7.97;;;4.50;99.90;;;4.28;100.00;102821.25;5007741;28;20133;-64
2021/03/03 05:43:40;;;;;;;24.83;8.20;;;4.60;99.90;;;4.50;100.00;102807.06;4996147;28;20042;-64
2021/03/03 05:46:06;;;;;;;19.95;8.02;;;4.60;99.90;;;4.41;100.00;102813.97;5019775;28;20072;-62
2021/03/03 05:48:46;;;;;;;17.02;8.15;;;4.60;99.90;;;4.39;100.00;102810.56;4974586;28;20045;-63
2021/03/03 05:51:12;;;;;;;31.20;8.35;;;4.60;99.90;;;4.28;100.00;102814.03;5009906;28;20065;-62
2021/03/03 05:53:38;;;;;;;37.78;8.77;;;4.60;99.90;;;4.36;100.00;102817.03;4998225;28;20560;-63
2021/03/03 05:56:07;;;;;;;35.88;8.43;;;4.60;99.90;;;4.42;100.00;102809.44;5002974;28;20038;-64
2021/03/03 05:58:41;;;;;;;31.00;9.77;;;4.70;99.90;;;4.61;100.00;102799.91;4987077;28;20373;-63
2021/03/03 06:01:09;;;;;;;29.00;9.10;;;4.70;99.90;;;4.59;100.00;102799.16;5019893;28;20096;-63
2021/03/03 06:03:37;;;;;;;30.92;9.18;;;4.70;99.90;;;4.74;100.00;102794.44;5006264;28;20034;-63
2021/03/03 06:06:03;;;;;;;44.08;10.45;;;4.70;99.90;;;4.69;100.00;102792.09;4989866;28;20397;-66
2021/03/03 06:08:31;;;;;;;22.20;9.45;;;4.80;99.90;;;4.46;100.00;102806.41;5004610;28;20049;-65
2021/03/03 06:11:00;;;;;;;29.60;10.38;;;4.80;99.90;;;4.57;100.00;102803.78;5018135;28;20053;-65
2021/03/03 06:13:26;;;;;;;45.28;11.95;;;4.80;99.90;;;4.55;100.00;102808.44;5006797;28;20516;-66
2021/03/03 06:15:52;;;;;;;32.05;11.98;;;4.80;99.90;;;4.57;100.00;102803.78;5022613;28;20046;-65
2021/03/03 06:18:20;;;;;;;49.08;13.20;;;4.80;99.90;;;4.49;100.00;102802.66;5010397;28;20034;-64
2021/03/03 06:20:49;;;;;;;34.88;12.35;;;4.80;99.90;;;4.50;100.00;102802.53;5005720;28;20365;-65
2021/03/03 06:23:22;;;;;;;41.78;12.73;;;4.80;99.90;;;4.65;100.00;102808.63;5005028;28;20034;-65
2021/03/03 06:26:07;;;;;;;25.75;12.38;;;4.80;99.90;;;4.67;100.00;102815.63;5008566;28;20135;-65
2021/03/03 06:28:39;;;;;;;37.13;12.13;;;4.90;99.90;;;4.55;100.00;102821.91;4987262;28;20038;-66
2021/03/03 06:31:33;;;;;;;45.55;11.80;;;4.90;99.90;;;4.55;100.00;102823.75;5008303;28;20037;-63
2021/03/03 06:34:25;;;;;;;58.40;13.10;;;4.90;99.90;;;4.48;100.00;102830.59;4998871;28;20104;-66
2021/03/03 06:37:03;;;;;;;25.45;11.55;;;4.90;99.90;;;4.62;100.00;102836.69;4999159;28;20042;-66
2021/03/03 06:39:37;;;;;;;32.50;13.23;;;4.90;99.90;;;4.59;100.00;102833.34;4984164;28;20038;-67
2021/03/03 06:42:08;;;;;;;26.33;12.73;;;4.90;99.90;;;4.70;100.00;102837.00;5007095;28;20042;-66
2021/03/03 06:44:54;;;;;;;38.90;13.50;;;5.00;99.90;;;4.80;100.00;102836.28;5008783;28;20072;-66
2021/03/03 06:47:21;;;;;;;34.63;13.10;;;5.00;99.90;;;4.77;100.00;102844.59;5021206;28;20050;-66
2021/03/03 06:49:48;;;;;;;30.20;13.88;;;5.00;99.90;;;4.78;100.00;102843.63;4992641;28;20183;-66
2021/03/03 06:52:14;;;;;;;42.28;15.65;;;5.00;99.90;;;4.68;100.00;102847.03;5018861;28;20025;-66
2021/03/03 06:54:40;;;;;;;39.95;16.08;;;5.00;99.90;;;4.72;100.00;102855.75;4994563;28;20092;-65
2021/03/03 06:57:12;;;;;;;30.17;14.73;;;5.00;99.90;;;4.86;100.00;102857.41;5004365;28;20026;-66
2021/03/03 06:59:45;;;;;;;40.03;14.70;;;5.10;99.90;;;4.87;100.00;102859.13;5019753;28;20388;-68
2021/03/03 07:02:12;;;;;;;46.03;15.20;;;5.10;99.90;;;4.73;100.00;102863.75;5016171;28;20032;-66
2021/03/03 07:04:43;;;;;;;28.38;14.68;;;5.10;99.90;;;4.82;100.00;102856.81;5016069;28;20069;-64
2021/03/03 07:07:16;;;;;;;39.78;15.52;;;5.10;99.90;;;4.95;100.00;102872.94;5028815;28;20125;-64
2021/03/03 07:09:48;;;;;;;28.10;16.23;;;5.20;99.90;;;5.19;100.00;102876.50;5014078;28;20038;-64
2021/03/03 07:12:20;;;;;;;51.70;15.50;;;5.30;99.90;;;5.26;100.00;102872.38;5004353;28;20041;-65
2021/03/03 07:14:56;;;;;;;50.45;16.08;;;5.40;99.90;;;5.42;100.00;102878.31;5010769;28;20034;-65
2021/03/03 07:17:23;;;;;;;34.05;16.77;;;5.50;99.90;;;5.44;100.00;102881.75;5026692;28;20515;-67
2021/03/03 07:20:03;;;;;;;30.83;15.65;;;5.50;99.90;;;5.64;100.00;102882.94;4993734;28;20036;-65
2021/03/03 07:22:36;;;;;;;37.80;17.05;;;5.60;99.90;;;5.58;100.00;102879.84;4988935;28;20085;-65
2021/03/03 07:25:08;;;;;;;30.45;17.10;;;5.60;99.90;;;5.53;100.00;102880.19;5010044;28;20125;-66
2021/03/03 07:27:36;;;;;;;39.50;16.77;;;5.70;99.90;;;5.40;100.00;102884.81;5012936;28;20045;-65
2021/03/03 07:30:13;;;;;;;44.05;16.90;;;5.70;99.90;;;5.40;100.00;102888.38;5012755;28;20045;-65
2021/03/03 07:32:40;;;;;;;41.33;17.08;;;5.70;99.90;;;5.43;100.00;102881.88;5022989;28;20045;-66
2021/03/03 07:35:09;;;;;;;32.65;17.25;;;5.70;99.90;;;5.48;100.00;102877.84;5013360;28;20109;-65
2021/03/03 07:37:38;;;;;;;40.80;18.40;;;5.70;99.90;;;5.63;100.00;102888.47;5015204;28;20057;-64
2021/03/03 07:40:07;;;;;;;27.50;16.23;;;5.70;99.90;;;5.45;100.00;102894.28;5012885;28;20041;-64
2021/03/03 07:42:35;;;;;;;48.20;18.00;;;5.80;99.90;;;5.51;100.00;102889.41;5028611;28;20432;-65
2021/03/03 07:45:07;;;;;;;38.83;17.50;;;5.80;99.90;;;5.78;100.00;102887.25;5011917;28;20048;-65
2021/03/03 07:47:39;;;;;;;37.53;17.00;;;5.90;99.90;;;5.80;100.00;102893.41;5010866;28;20037;-65
2021/03/03 07:50:19;;;;;;;33.55;16.35;;;6.00;99.90;;;5.91;100.00;102896.19;5025103;28;20044;-65
2021/03/03 07:52:56;;;;;;;51.25;17.92;;;6.10;99.90;;;5.90;100.00;102891.75;5013714;28;20100;-65
2021/03/03 07:55:23;;;;;;;40.10;18.60;;;6.20;99.90;;;5.94;100.00;102895.09;5012149;28;20400;-66
2021/03/03 07:57:53;;;;;;;38.67;18.35;;;6.30;99.90;;;6.03;100.00;102895.22;5008208;28;20053;-64
2021/03/03 08:00:33;;;;;;;41.58;19.13;;;6.30;99.90;;;6.18;100.00;102893.16;5003293;28;20121;-64
2021/03/03 08:02:59;;;;;;;46.65;19.85;;;6.30;99.90;;;6.32;100.00;102892.06;5022761;28;20030;-65
2021/03/03 08:05:31;;;;;;;43.30;19.30;;;6.40;99.90;;;6.03;100.00;102888.94;5011670;28;20092;-66
2021/03/03 08:08:33;;;;;;;33.72;18.17;;;6.40;99.90;;;6.12;100.00;102894.50;5019257;28;20172;-67
2021/03/03 08:10:58;;;;;;;45.67;18.98;;;6.40;99.90;;;6.01;100.00;102886.38;5008062;28;20025;-67
2021/03/03 08:13:30;;;;;;;40.35;19.00;;;6.40;99.90;;;5.92;100.00;102887.09;5011613;28;20037;-67
2021/03/03 08:16:02;;;;;;;32.67;17.75;;;6.40;99.90;;;6.05;100.00;102887.84;5009313;28;20455;-67
2021/03/03 08:18:31;;;;;;;39.88;18.70;;;6.40;99.90;;;5.93;100.00;102894.22;5007428;28;20056;-66
2021/03/03 08:20:59;;;;;;;29.80;17.45;;;6.40;99.90;;;6.25;100.00;102896.22;5028013;28;20034;-67
2021/03/03 08:23:33;;;;;;;33.92;18.55;;;6.50;99.90;;;6.37;100.00;102892.56;5000396;28;20387;-68
2021/03/03 08:26:15;;;;;;;37.00;19.42;;;6.50;99.90;;;6.67;100.00;102887.38;5016882;28;20455;-65
2021/03/03 08:28:51;;;;;;;35.47;19.45;;;6.60;99.90;;;6.85;100.00;102898.56;5010708;28;20041;-67
2021/03/03 08:31:21;;;;;;;37.38;19.25;;;6.80;99.90;;;6.98;100.00;102893.00;5009354;28;20034;-65
2021/03/03 08:33:50;;;;;;;38.55;20.08;;;6.90;99.90;;;6.59;100.00;102895.25;5008108;28;20041;-65
2021/03/03 08:36:21;;;;;;;40.45;19.65;;;6.90;99.90;;;6.86;100.00;102890.31;4997005;28;20044;-68
2021/03/03 08:38:56;;;;;;;38.63;20.65;;;6.90;99.90;;;7.00;100.00;102891.03;5008050;28;20065;-66
2021/03/03 08:41:30;;;;;;;37.60;19.98;;;7.10;99.90;;;7.10;100.00;102889.28;5010386;28;20044;-68
2021/03/03 08:44:05;;;;;;;;;;;7.10;99.90;;;6.90;100.00;102880.94;5024715;28;20031;-67
2021/03/03 08:46:30;;;;;;;36.25;19.27;;;7.10;99.90;;;7.33;100.00;102871.97;5005979;28;19921;-67
2021/03/03 08:48:56;;;;;;;34.42;18.70;;;7.30;99.90;;;7.35;99.79;102869.94;5020201;28;20038;-67
2021/03/03 08:51:28;;;;;;;36.05;19.20;;;7.40;99.90;;;7.59;98.94;102878.72;5000571;28;20105;-67
2021/03/03 08:53:56;;;;;;;38.42;18.40;;;7.60;99.90;;;7.36;97.68;102882.50;5007386;28;20484;-67
2021/03/03 08:56:54;;;;;;;36.65;18.92;;;7.60;99.90;;;7.57;97.54;102888.81;5019163;28;20491;-67
2021/03/03 08:59:29;;;;;;;36.25;19.20;;;7.70;99.90;;;7.39;95.95;102886.81;4994202;28;20207;-66
2021/03/03 09:02:12;;;;;;;39.22;19.88;;;7.80;99.90;;;7.22;95.22;102891.78;5023582;28;20389;-65
2021/03/03 09:04:52;;;;;;;35.45;17.75;;;7.70;99.90;;;7.35;96.20;102897.03;5002998;28;20034;-66
2021/03/03 09:07:31;;;;;;;36.53;18.23;;;7.60;99.90;;;7.27;95.49;102899.53;5025206;28;20030;-67
2021/03/03 09:10:08;;;;;;;37.88;19.30;;;7.60;99.90;;;7.64;95.64;102892.75;5007117;28;20109;-66
2021/03/03 09:12:41;;;;;;;39.60;20.77;;;7.70;99.90;;;7.77;96.41;102886.28;4993069;28;20492;-66
2021/03/03 09:15:11;;;;;;;36.90;20.05;;;7.90;99.90;;;8.19;94.03;102893.38;5008122;28;20488;-65
2021/03/03 09:17:37;;;;;;;36.72;19.58;;;8.00;99.90;;;8.32;93.73;102888.66;4997833;28;20490;-65
2021/03/03 09:20:17;;;;;;;36.00;18.20;;;8.20;99.90;;;8.58;92.96;102882.72;5010735;28;20048;-66
2021/03/03 09:22:45;;;;;;;36.38;18.10;;;8.40;99.90;;;8.88;91.53;102879.13;4999023;28;20641;-66
2021/03/03 09:25:22;;;;;;;35.15;19.20;;;8.60;99.90;;;8.90;90.46;102872.56;5022240;28;20132;-67
2021/03/03 09:27:58;;;;;;;38.65;19.98;;;8.80;99.90;;;8.81;87.60;102867.94;5009453;28;20034;-65
2021/03/03 09:30:27;;;;;;;39.42;18.38;;;8.90;99.90;;;8.85;88.01;102863.97;5010262;28;20034;-65
2021/03/03 09:32:56;;;;;;;41.45;19.83;;;8.90;99.90;;;8.80;87.86;102866.25;5007024;28;20066;-67
2021/03/03 09:35:30;;;;;;;33.50;18.60;;;8.90;99.90;;;9.05;87.47;102857.56;4991821;28;20508;-67
2021/03/03 09:37:56;;;;;;;39.33;20.55;;;9.00;99.90;;;9.21;86.66;102864.31;5003121;28;20039;-69
2021/03/03 09:40:32;;;;;;;39.00;21.02;;;9.10;99.90;;;9.37;86.12;102864.59;5007645;28;20073;-69
2021/03/03 09:42:59;;;;;;;41.28;20.40;;;9.20;99.90;;;9.46;86.70;102863.75;5006726;28;20049;-68
2021/03/03 09:45:26;;;;;;;39.25;19.05;;;9.40;99.90;;;9.59;86.29;102869.75;5006115;28;20050;-68
2021/03/03 09:47:55;;;;;;;40.42;21.08;;;9.50;99.90;;;9.55;86.23;102862.03;4998816;28;20042;-70
2021/03/03 09:50:27;;;;;;;40.35;19.38;;;9.60;99.90;;;9.82;85.05;102865.69;5006573;28;20049;-67
2021/03/03 09:52:58;;;;;;;34.40;18.73;;;9.70;99.90;;;9.91;84.39;102868.56;5000287;28;20030;-66
2021/03/03 09:55:33;;;;;;;37.97;20.15;;;9.80;99.90;;;9.99;84.39;102874.13;5007197;28;20041;-67
2021/03/03 09:58:01;;;;;;;36.47;18.02;;;9.90;99.90;;;9.68;83.70;102874.31;5022798;28;20037;-66
2021/03/03 10:00:39;;;;;;;42.20;19.38;;;9.90;99.90;;;9.11;83.11;102864.31;4998668;28;20041;-66
2021/03/03 10:03:15;;;;;;;38.50;19.75;;;9.70;99.90;;;9.33;84.23;102871.31;4993694;28;20116;-65
2021/03/03 10:05:43;;;;;;;37.38;19.85;;;9.60;99.90;;;9.67;83.61;102874.47;5010216;28;20477;-67
2021/03/03 10:08:12;;;;;;;40.38;18.92;;;9.60;99.90;;;9.88;83.50;102869.72;4997744;28;20035;-67
2021/03/03 10:10:46;;;;;;;36.70;19.23;;;9.80;99.90;;;9.89;83.08;102874.16;5004832;28;20817;-67
2021/03/03 10:13:23;;;;;;;45.53;20.33;;;9.90;99.90;;;10.19;81.11;102881.25;4989600;28;20038;-66
2021/03/03 10:15:50;;;;;;;40.17;19.85;;;10.00;99.90;;;10.43;80.06;102875.31;5014630;28;20474;-66
2021/03/03 10:18:16;;;;;;;39.97;19.38;;;10.10;99.90;;;10.50;79.37;102888.16;4998059;28;20051;-66